Marlboro, VT (05344)

7:58 PM EST on February 19, 2017 (GMT -0500)
Lower Lake Raponda Rd | | Change Station

Elev 1867 ft 42.87 °N, 72.82 °W | Updated 8 seconds ago

Mostly Cloudy
Mostly Cloudy
39.9 °F
Feels Like 40 °F
N
1.0
Wind Variable Wind from NNE

Today
High -- | Low -- °F
--% Chance of Precip.
Yesterday
High -- | Low -- °F
Precip. -- in
Pressure 29.92 in
Visibility 10.0 miles
Clouds Overcast 6500 ft
Windchill 40 °F
Dew Point 30 °F
Humidity 68%
Rainfall 0.00 in
Snow Depth Not available.
6:42 AM 5:28 PM
Last Quarter, 39% visible
METAR KEEN 200056Z AUTO 00000KT 10SM OVC065 08/00 A2985 RMK AO2 SLP130 T00780000
Pressure 29.92 in
Visibility 10.0 miles
Clouds Overcast 6500 ft
Windchill 40 °F
Dew Point 30 °F
Humidity 68%
Rainfall 0.00 in
Snow Depth Not available.
6:42 AM 5:28 PM
Last Quarter, 39% visible
METAR KEEN 200056Z AUTO 00000KT 10SM OVC065 08/00 A2985 RMK AO2 SLP130 T00780000

Get Your Daily Forecast Email!

Thanks for signing up!

Be on the lookout for a verification email in your inbox.

You'll start receiving the daily forecast at 8 AM.

×

10-Day Weather Forecast

Almanac

Astronomy

Feb. 19, 2017 Rise Set
Actual Time
Civil Twilight
Nautical Twilight
Astronomical Twilight
Moon
Length of Visible Light
Length of Day
Tomorrow will be .
, % of the Moon is Illuminated

Today's Extremes

State Highs State Lows

Community

WunderPhotos

Upload Photos

1,962,540 photos uploaded!

WunderBlog® & News

Nearby

Air Quality

  Air Quality AQ Index Pollutant
Not available.

Snow Depth

Station Depth Elevation

Earthquake Activity

City Distance Mag. Time & Date
Minimum magnitude displayed is 2.5.

Coastal Water Temperatures

Place Temperature

Stations

Nearby Weather Stations

Station Location Temp. Windchill Dew Point Humidity Wind Precip. Elev Updated Type
                   

Watches & Warnings

There are currently no watches in effect.